• Join FlightAware (Why Join?)
  • Login
  • US Flag 
03:09PM EDT


 

Airport Tracker/Info


-or-


 

Live Flight TrackerFlight Track Log ✈ N934DL ✈ 13-Apr-2013 ✈ KCVG - KTPA

Flight Track Log - Related Links

Times and Time Zones

All times are in EDT time to prevent confusion due to time zone crossing. See the N934DL flight status page for this flight to view local times or setup timezone preferences in your user account.

Time Position Orientation Groundspeed Altitude Reporting Facility
EDT Latitude Longitude Course Direction KTS MPH feet Rate Location/Type
02:19PM 39.0333 -84.6667 180° South 148 170 2,000  Level Cincinnati TRACON
02:19PM 39.0000 -84.6667 180° South 213 245 3,600 3,120 Climbing Cincinnati TRACON
02:20PM 38.9333 -84.6667 180° South 261 300 7,400 3,480 Climbing Cincinnati TRACON
02:22PM 38.8169 -84.6956 191° South 287 330 12,700 2,340 Climbing Indianapolis Center
02:23PM 38.7158 -84.7117 187° South 367 422 13,600 2,040 Climbing Indianapolis Center
02:24PM 38.6089 -84.7278 187° South 386 444 17,000 3,120 Climbing Indianapolis Center
02:25PM 38.4981 -84.7447 187° South 398 458 20,000 2,760 Climbing Indianapolis Center
02:26PM 38.3853 -84.7606 186° South 405 466 22,700 1,440 Climbing Indianapolis Center
02:27PM 38.2511 -84.7717 184° South 415 478 23,000 120 Climbing Indianapolis Center
02:28PM 38.1344 -84.7817 184° South 420 483 23,000 720 Level Indianapolis Center
02:29PM 38.0200 -84.7903 183° South 416 479 24,500 2,760 Climbing Indianapolis Center
02:30PM 37.8972 -84.7683 172° South 440 506 28,700 2,820 Climbing Indianapolis Center
02:31PM 37.7869 -84.7461 171° South 410 472 30,400 1,740 Climbing Indianapolis Center
02:32PM 37.6714 -84.7250 172° South 416 479 32,300 1,800 Climbing Indianapolis Center
02:33PM 37.5589 -84.7036 171° South 406 467 34,200 1,260 Climbing Indianapolis Center
02:34PM 37.4489 -84.6878 173° South 399 459 35,000 360 Climbing Indianapolis Center
02:35PM 37.3214 -84.6814 178° South 393 452 35,000  Level Indianapolis Center
02:36PM 37.2133 -84.6750 177° South 391 450 35,000 360 Level Indianapolis Center
02:37PM 37.1047 -84.6700 178° South 390 449 35,800 660 Climbing Indianapolis Center
02:38PM 36.9928 -84.6644 178° South 400 460 36,400 540 Climbing Indianapolis Center
02:39PM 36.8794 -84.6575 177° South 405 466 37,000 240 Climbing Indianapolis Center
02:40PM 36.7656 -84.6528 178° South 407 468 37,000  Level Indianapolis Center
02:42PM 36.6522 -84.6467 178° South 407 468 37,000  Level Indianapolis Center
02:43PM 36.5394 -84.6414 178° South 405 466 37,000  Level Indianapolis Center
02:44PM 36.4036 -84.6356 178° South 406 467 37,000  Level Indianapolis Center
02:45PM 36.2900 -84.6297 178° South 407 468 37,000  Level Indianapolis Center
02:46PM 36.1781 -84.6242 178° South 403 464 37,000  Level Indianapolis Center
02:46PM 36.0903 -84.6219 179° South 403 464 37,000  Level Atlanta Center
02:47PM 35.9903 -84.6161 177° South 403 464 37,000  Level Atlanta Center
02:48PM 35.8775 -84.6128 179° South 403 464 37,000  Level Atlanta Center
02:49PM 35.7650 -84.6069 178° South 403 464 37,000  Level Atlanta Center
02:50PM 35.6522 -84.6011 178° South 403 464 37,000  Level Atlanta Center
02:51PM 35.5375 -84.5978 179° South 403 464 37,000  Level Atlanta Center
02:52PM 35.4208 -84.5917 178° South 403 464 37,000  Level Atlanta Center
02:53PM 35.3103 -84.5858 178° South 403 464 37,000  Level Atlanta Center
02:54PM 35.1975 -84.5803 178° South 403 464 37,000  Level Atlanta Center
02:55PM 35.0828 -84.5742 178° South 403 464 37,000  Level Atlanta Center
02:56PM 34.9703 -84.5711 179° South 403 464 37,000  Level Atlanta Center
02:57PM 34.8575 -84.5653 178° South 403 464 37,000  Level Atlanta Center
02:58PM 34.7469 -84.5619 179° South 403 464 37,000  Level Atlanta Center
02:59PM 34.6364 -84.5539 177° South 403 464 37,000  Level Atlanta Center
03:00PM 34.5278 -84.5506 179° South 403 464 37,000  Level Atlanta Center
03:01PM 34.4172 -84.5425 177° South 398 458 37,000  Level Atlanta Center
03:02PM 34.3025 -84.5392 179° South 404 465 37,000  Level Atlanta Center
03:03PM 34.1794 -84.5333 178° South 399 459 37,000  Level Atlanta Center
03:04PM 34.0731 -84.5303 179° South 408 470 37,000  Level Atlanta Center
03:05PM 33.9603 -84.5272 179° South 413 475 37,000  Level Atlanta Center
03:06PM 33.8433 -84.5189 177° South 401 461 37,000  Level Atlanta Center
03:07PM 33.7350 -84.5108 176° South 407 468 37,000  Level Atlanta Center
03:08PM 33.6242 -84.5078 179° South 407 468 37,000  Level Atlanta Center
03:09PM 33.5136 -84.5047 179° South 402 463 37,000  Level Atlanta Center
03:10PM 33.4011 -84.4992 178° South 402 463 37,000  Level Atlanta Center
03:11PM 33.2800 -84.4936 178° South 402 463 37,000  Level Atlanta Center
03:12PM 33.1672 -84.4906 179° South 402 463 37,000  Level Atlanta Center
03:13PM 33.0567 -84.4825 177° South 402 463 37,000  Level Atlanta Center
03:14PM 32.9439 -84.4769 178° South 402 463 37,000  Level Atlanta Center
03:15PM 32.8333 -84.4764 180° South 402 463 37,000  Level Atlanta Center
03:16PM 32.7206 -84.4658 175° South 402 463 37,000  Level Atlanta Center
03:17PM 32.6058 -84.4653 180° South 402 463 37,000  Level Atlanta Center
03:18PM 32.4911 -84.4575 177° South 402 463 37,000  Level Atlanta Center
03:19PM 32.3764 -84.4519 178° South 402 463 37,000  Level Atlanta Center
03:20PM 32.2636 -84.4492 179° South 402 463 37,000  Level Atlanta Center
03:21PM 32.1467 -84.4411 177° South 402 463 37,000  Level Atlanta Center
03:22PM 32.0319 -84.4381 179° South 407 468 37,000  Level Atlanta Center
03:23PM 31.9275 -84.4322 177° South 418 481 37,000  Level Jacksonville Center
03:24PM 31.8106 -84.4278 178° South 418 481 37,000  Level Jacksonville Center
03:25PM 31.6958 -84.4211 177° South 418 481 37,000  Level Jacksonville Center
03:26PM 31.5769 -84.4192 179° South 418 481 37,000  Level Jacksonville Center
03:27PM 31.4581 -84.4122 177° South 423 487 37,000  Level Jacksonville Center
03:28PM 31.3389 -84.4103 179° South 423 487 37,000  Level Jacksonville Center
03:29PM 31.2203 -84.3986 175° South 423 487 37,000 -120 Level Jacksonville Center
03:30PM 31.0992 -84.3944 178° South 423 487 36,800 -660 Descending Jacksonville Center
03:31PM 30.9803 -84.3878 177° South 428 493 35,700 -900 Descending Jacksonville Center
03:32PM 30.8656 -84.3567 167° South 428 493 35,000 -360 Descending Jacksonville Center
03:33PM 30.7472 -84.3042 159° South 435 501 35,000  Level Jacksonville Center
03:34PM 30.6331 -84.2494 158° South 440 506 35,000  Level Jacksonville Center
03:35PM 30.5061 -84.1944 160° South 440 506 35,000  Level Jacksonville Center
03:36PM 30.4044 -84.1497 159° South 437 503 35,000  Level Jacksonville Center
03:37PM 30.2881 -84.0978 159° South 437 503 35,000 -60 Level Jacksonville Center
03:38PM 30.1694 -84.0458 159° South 450 518 34,900 -540 Descending Jacksonville Center
03:39PM 30.0550 -83.9942 159° South 450 518 34,000 -1,020 Descending Jacksonville Center
03:40PM 29.9364 -83.9425 159° South 450 518 32,900 -1,200 Descending Jacksonville Center
03:41PM 29.8219 -83.8933 160° South 445 512 31,600 -1,680 Descending Jacksonville Center
03:42PM 29.6994 -83.8131 150° Southeast 452 520 29,600 -1,800 Descending Jacksonville Center
03:43PM 29.5872 -83.7428 151° Southeast 457 526 28,100 -1,260 Descending Jacksonville Center
03:44PM 29.4728 -83.6703 151° Southeast 462 532 27,100 -900 Descending Jacksonville Center
03:45PM 29.3606 -83.5956 150° Southeast 462 532 26,400 -840 Descending Jacksonville Center
03:46PM 29.2525 -83.5256 151° Southeast 455 524 25,500 -1,200 Descending Jacksonville Center
03:47PM 29.1464 -83.4583 151° Southeast 450 518 24,000 -1,440 Descending Jacksonville Center
03:48PM 29.0442 -83.3936 151° Southeast 439 505 22,700 -1,500 Descending Jacksonville Center
03:49PM 28.9381 -83.3267 151° Southeast 439 505 21,100 -1,920 Descending Jacksonville Center
03:50PM 28.8403 -83.2600 149° Southeast 428 493 18,900 -2,400 Descending Jacksonville Center
03:51PM 28.7403 -83.2003 152° Southeast 416 479 16,400 -2,400 Descending Jacksonville Center
03:52PM 28.6442 -83.1408 152° Southeast 406 467 14,100 -1,860 Descending Jacksonville Center
03:53PM 28.5667 -83.0833 147° Southeast 386 444 13,000 -660 Descending Tampa TRACON
03:54PM 28.4833 -83.0333 152° Southeast 379 436 13,000 -300 Level Tampa TRACON
03:55PM 28.4000 -82.9833 152° Southeast 359 413 12,500 -1,200 Descending Tampa TRACON
03:56PM 28.3167 -82.9333 152° Southeast 327 376 10,600 -1,560 Descending Tampa TRACON
03:57PM 28.2667 -82.8500 124° Southeast 311 358 9,300 -1,620 Descending Tampa TRACON
03:58PM 28.2667 -82.7500 90° East 309 356 7,300 -1,800 Descending Tampa TRACON
03:59PM 28.2333 -82.6500 111° Southeast 304 350 5,700 -1,500 Descending Tampa TRACON
04:00PM 28.1833 -82.5833 130° Southeast 282 325 4,400 -1,320 Descending Tampa TRACON
04:01PM 28.1333 -82.5333 139° Southeast 228 262 3,100 -1,320 Descending Tampa TRACON
04:02PM 28.0833 -82.5333 180° South 200 230 1,900 -1,140 Descending Tampa TRACON
04:03PM 28.0333 -82.5333 180° South 142 163 900 -960 Descending Tampa TRACON